createdAt,value
2023-05-19T00:08:57.874Z,101056.47
2023-05-19T00:19:05.673Z,101057.66
2023-05-19T00:29:09.455Z,101067.44
2023-05-19T00:39:14.514Z,101065.78
2023-05-19T00:49:18.193Z,101045.50
2023-05-19T00:59:23.451Z,101046.81
2023-05-19T01:09:27.761Z,101044.38
2023-05-19T01:19:56.207Z,101040.25
2023-05-19T01:30:31.174Z,101038.44
2023-05-19T01:40:35.506Z,101044.06
2023-05-19T01:50:41.006Z,101033.03
2023-05-19T02:00:55.050Z,101042.38
2023-05-19T02:11:07.122Z,101054.75
2023-05-19T02:21:13.285Z,101053.16
2023-05-19T02:31:18.311Z,101046.94
2023-05-19T02:41:22.193Z,101046.50
2023-05-19T02:51:27.289Z,101034.41
2023-05-19T03:01:32.624Z,101029.44
2023-05-19T03:11:37.695Z,101027.88
2023-05-19T03:21:41.662Z,101036.69
2023-05-19T03:31:46.678Z,101029.84
2023-05-19T03:41:51.438Z,101046.19
2023-05-19T03:51:56.508Z,101035.75
2023-05-19T04:02:00.255Z,101041.41
2023-05-19T04:12:06.137Z,101030.72
2023-05-19T04:22:09.822Z,101045.03
2023-05-19T04:32:17.522Z,101045.53
2023-05-19T04:42:21.394Z,101052.53
2023-05-19T04:52:27.720Z,101067.50
2023-05-19T05:02:32.132Z,101066.75
2023-05-19T05:12:38.057Z,101063.94
2023-05-19T05:22:42.926Z,101063.94
2023-05-19T05:32:48.203Z,101057.31
2023-05-19T05:42:52.125Z,101053.84
2023-05-19T05:52:59.167Z,101048.28
2023-05-19T06:03:03.150Z,101045.63
2023-05-19T06:13:08.198Z,101051.41
2023-05-19T06:23:11.790Z,101039.28
2023-05-19T06:33:16.896Z,101033.16
2023-05-19T06:43:20.565Z,101034.66
2023-05-19T06:53:25.532Z,101024.38
2023-05-19T07:03:30.984Z,101006.81
2023-05-19T07:13:36.178Z,101006.31
2023-05-19T07:23:40.039Z,100992.31
2023-05-19T07:33:45.130Z,100990.38
2023-05-19T07:43:48.839Z,100977.38
2023-05-19T07:53:53.868Z,100964.16
2023-05-19T08:03:57.869Z,100946.41
2023-05-19T08:14:03.014Z,100932.66
2023-05-19T08:24:07.503Z,100932.34
2023-05-19T08:34:12.578Z,100921.19
2023-05-19T08:44:17.601Z,100916.69
2023-05-19T08:54:35.120Z,100901.53
2023-05-19T09:04:40.130Z,100893.97
2023-05-19T09:14:46.460Z,100890.13
2023-05-19T09:24:51.003Z,100866.44
2023-05-19T09:34:57.063Z,100867.41
2023-05-19T09:45:03.997Z,100849.50
2023-05-19T09:55:11.849Z,100833.41
2023-05-19T10:05:17.571Z,100828.28
2023-05-19T10:15:23.507Z,100829.13
2023-05-19T10:25:27.361Z,100822.78
2023-05-19T10:35:51.287Z,100809.69
2023-05-19T10:45:55.768Z,100803.53
2023-05-19T10:56:04.138Z,100792.50
2023-05-19T11:06:20.578Z,100783.38
2023-05-19T11:16:33.576Z,100773.97
2023-05-19T11:26:44.109Z,100775.50
2023-05-19T11:36:50.255Z,100762.56
2023-05-19T11:46:54.682Z,100745.16
2023-05-19T11:57:02.802Z,100737.13
2023-05-19T12:07:07.093Z,100737.97
2023-05-19T12:17:17.615Z,100726.84
2023-05-19T12:27:26.239Z,100728.63
2023-05-19T12:37:31.626Z,100729.41
2023-05-19T12:47:36.766Z,100714.16
2023-05-19T12:57:45.077Z,100704.03
2023-05-19T13:07:56.531Z,100711.41
2023-05-19T13:18:04.043Z,100700.53
2023-05-19T13:28:07.979Z,100681.84
2023-05-19T13:38:13.010Z,100672.41
2023-05-19T13:48:16.900Z,100666.50
2023-05-19T13:58:22.407Z,100670.69
2023-05-19T14:08:26.165Z,100656.25
2023-05-19T14:18:32.398Z,100656.25
2023-05-19T14:28:36.154Z,100657.22
2023-05-19T14:38:41.326Z,100670.81
2023-05-19T14:48:45.044Z,100651.94
2023-05-19T14:58:49.995Z,100636.59
2023-05-19T15:08:53.678Z,100641.41
2023-05-19T15:18:58.887Z,100639.75
2023-05-19T15:29:02.559Z,100659.59
2023-05-19T15:39:07.521Z,100640.72
2023-05-19T15:49:12.627Z,100640.81
2023-05-19T15:59:18.078Z,100635.59
2023-05-19T16:09:21.795Z,100642.16
2023-05-19T16:19:28.891Z,100632.19
2023-05-19T16:29:32.535Z,100637.34
2023-05-19T16:39:38.213Z,100631.38
2023-05-19T16:49:42.027Z,100625.34
2023-05-19T16:59:48.865Z,100618.50
2023-05-19T17:09:54.484Z,100613.38
2023-05-19T17:20:01.360Z,100620.19
2023-05-19T17:30:06.127Z,100618.53
2023-05-19T17:40:13.199Z,100609.38
2023-05-19T17:50:17.191Z,100614.03
2023-05-19T18:00:24.971Z,100631.44
2023-05-19T18:10:28.974Z,100654.47
2023-05-19T18:20:34.456Z,100654.00
2023-05-19T18:30:38.554Z,100662.44
2023-05-19T18:40:45.631Z,100670.44
2023-05-19T18:50:49.608Z,100668.66
2023-05-19T19:00:58.442Z,100677.03
2023-05-19T19:11:02.329Z,100675.56
2023-05-19T19:21:07.345Z,100689.19
2023-05-19T19:31:11.119Z,100682.75
2023-05-19T19:41:16.231Z,100693.75
2023-05-19T19:51:20.075Z,100702.41
2023-05-19T20:01:27.427Z,100704.81
2023-05-19T20:11:31.652Z,100691.94
2023-05-19T20:21:36.705Z,100703.31
2023-05-19T20:31:41.110Z,100700.09
2023-05-19T20:41:46.106Z,100700.34
2023-05-19T20:51:49.760Z,100708.31
2023-05-19T21:01:54.713Z,100704.03
2023-05-19T21:11:58.426Z,100712.75
2023-05-19T21:22:03.414Z,100727.41
2023-05-19T21:32:07.939Z,100724.91
2023-05-19T21:42:13.030Z,100722.00
2023-05-19T21:52:16.777Z,100723.59
2023-05-19T22:02:22.033Z,100716.84
2023-05-19T22:12:32.397Z,100713.22
2023-05-19T22:22:37.632Z,100720.63
2023-05-19T22:32:41.324Z,100713.50
2023-05-19T22:42:46.347Z,100711.53
2023-05-19T22:52:50.111Z,100705.00
2023-05-19T23:02:55.245Z,100702.47
2023-05-19T23:12:58.982Z,100687.59
2023-05-19T23:23:04.163Z,100701.97
2023-05-19T23:33:07.964Z,100699.22
2023-05-19T23:43:14.001Z,100691.47
2023-05-19T23:53:17.693Z,100670.88
